Login to view Products
 
Thursday, November 26, 2020 (03:58 UTC)
Dubai International Airport
Last Updated: 26-Nov-2020 (03:57Z)
Wind Dir/Speed: SE at 04 kt
Temperature: 22.6°C
Rel. Humidity: 56 %
Pressure: 1019.1 hPa
Visibility: 10000 m
  • METAR OMDB 260330Z VRB01KT CAVOK 21/14 Q1018 NOSIG
  • TAF OMDB 252300Z 2600/2706 09008KT CAVOK BECMG 2610/2612 35012KT BECMG 2614/2616 10009KT=
D:\Input Parser\Destinations\Final\23\OMDBL00062300264644701.txt
1